Time;durP1;ratioP1;P1;durP2;ratioP2;P2;SDS_P1;SDS_P2;PMS_P1;PMS_P2;Temp;Humidity;BMP_temperature;BMP_pressure;BME280_temperature;BME280_humidity;BME280_pressure;Samples;Min_cycle;Max_cycle;Signal;HPM_P1;HPM_P2
2023/07/07 00:01:47;;;;;;;15.00;0.60;;;15.90;99.90;;;;;;4378119;32;21634;-76
2023/07/07 00:04:13;;;;;;;0.20;0.20;;;16.00;99.90;;;;;;4380498;32;20098;-77
2023/07/07 00:06:39;;;;;;;0.50;0.50;;;16.00;99.90;;;;;;4378479;32;20649;-78
2023/07/07 00:09:04;;;;;;;0.40;0.40;;;15.90;99.90;;;;;;4378074;32;20071;-77
2023/07/07 00:11:30;;;;;;;0.40;0.40;;;15.90;99.90;;;;;;4377716;32;20364;-77
2023/07/07 00:13:55;;;;;;;0.93;0.40;;;15.90;99.90;;;;;;4375988;32;20103;-78
2023/07/07 00:16:27;;;;;;;0.40;0.40;;;15.90;99.90;;;;;;4376792;32;20094;-79
2023/07/07 00:19:00;;;;;;;0.88;0.47;;;15.80;99.90;;;;;;4379115;32;20111;-77
2023/07/07 00:21:26;;;;;;;0.60;0.60;;;15.90;99.90;;;;;;4376692;32;20129;-75
2023/07/07 00:23:54;;;;;;;4.90;1.70;;;15.80;99.90;;;;;;4376483;32;20095;-77
2023/07/07 00:26:21;;;;;;;0.40;0.40;;;15.70;99.90;;;;;;4378672;32;20118;-78
2023/07/07 00:28:47;;;;;;;1.30;0.55;;;15.60;99.90;;;;;;4379029;32;20150;-77
2023/07/07 00:31:13;;;;;;;1.00;0.88;;;15.50;99.90;;;;;;4380186;32;20218;-77
2023/07/07 00:33:38;;;;;;;0.73;0.60;;;15.20;99.90;;;;;;4379474;32;20137;-76
2023/07/07 00:36:04;;;;;;;7.03;1.15;;;15.20;99.90;;;;;;4377732;32;20090;-78
2023/07/07 00:38:30;;;;;;;0.57;0.57;;;15.30;99.90;;;;;;4377806;32;20538;-78
2023/07/07 00:40:59;;;;;;;0.40;0.40;;;15.40;99.90;;;;;;4381188;32;20121;-76
2023/07/07 00:43:26;;;;;;;0.80;0.50;;;15.50;99.90;;;;;;4380274;32;20098;-77
2023/07/07 00:45:52;;;;;;;0.47;0.47;;;15.40;99.90;;;;;;4377941;32;20071;-77
2023/07/07 00:48:24;;;;;;;1.55;0.60;;;15.40;99.90;;;;;;4379285;32;20066;-78
2023/07/07 00:51:15;;;;;;;0.43;0.40;;;15.50;99.90;;;;;;4378800;32;20102;-77
2023/07/07 00:53:44;;;;;;;0.47;0.47;;;15.40;99.90;;;;;;4377732;32;20062;-77
2023/07/07 00:56:16;;;;;;;0.50;0.50;;;15.30;99.90;;;;;;4376679;32;20095;-77
2023/07/07 00:58:42;;;;;;;0.75;0.75;;;15.30;99.90;;;;;;4378815;32;20557;-78
2023/07/07 01:01:13;;;;;;;0.68;0.68;;;15.30;99.90;;;;;;4379411;32;20141;-76
2023/07/07 01:03:43;;;;;;;0.40;0.40;;;15.30;99.90;;;;;;4381104;32;20097;-76
2023/07/07 01:06:12;;;;;;;1.55;0.77;;;15.20;99.90;;;;;;4380447;32;20086;-78
2023/07/07 01:08:40;;;;;;;0.60;0.60;;;15.20;99.90;;;;;;4379867;32;20083;-75
2023/07/07 01:11:06;;;;;;;2.67;0.93;;;15.20;99.90;;;;;;4379879;32;20135;-77
2023/07/07 01:13:32;;;;;;;0.68;0.62;;;15.10;99.90;;;;;;4379490;32;20071;-77
2023/07/07 01:16:09;;;;;;;0.40;0.40;;;15.20;99.90;;;;;;4382743;32;20494;-78
2023/07/07 01:19:01;;;;;;;2.35;0.93;;;15.10;99.90;;;;;;4383260;32;20181;-78
2023/07/07 01:21:41;;;;;;;0.52;0.52;;;15.10;99.90;;;;;;4382507;32;20098;-78
2023/07/07 01:24:18;;;;;;;0.50;0.50;;;15.20;99.90;;;;;;4380682;32;20086;-76
2023/07/07 01:27:10;;;;;;;1.85;0.88;;;15.10;99.90;;;;;;4381517;32;20067;-76
2023/07/07 01:29:55;;;;;;;0.43;0.43;;;15.00;99.90;;;;;;4379196;32;20098;-78
2023/07/07 01:32:28;;;;;;;0.62;0.62;;;15.00;99.90;;;;;;4379735;32;20090;-77
2023/07/07 01:34:57;;;;;;;0.40;0.40;;;15.00;99.90;;;;;;4380136;32;20549;-77
2023/07/07 01:37:22;;;;;;;0.50;0.50;;;14.90;99.90;;;;;;4379357;32;20071;-77
2023/07/07 01:39:50;;;;;;;0.50;0.50;;;14.90;99.90;;;;;;4379962;32;20063;-77
2023/07/07 01:42:34;;;;;;;0.55;0.55;;;14.90;99.90;;;;;;4379262;32;20158;-76
2023/07/07 01:45:19;;;;;;;0.40;0.40;;;15.00;99.90;;;;;;4380869;32;20118;-76
2023/07/07 01:47:52;;;;;;;0.62;0.62;;;15.10;99.90;;;;;;4383455;32;20087;-76
2023/07/07 01:50:23;;;;;;;0.35;0.35;;;15.00;99.90;;;;;;4380377;32;20094;-76
2023/07/07 01:52:53;;;;;;;1.10;0.70;;;15.00;99.90;;;;;;4381958;32;20063;-75
2023/07/07 01:55:25;;;;;;;0.70;0.70;;;14.80;99.90;;;;;;4378571;32;20110;-76
2023/07/07 01:57:55;;;;;;;0.40;0.40;;;14.90;99.90;;;;;;4379531;32;20083;-75
2023/07/07 02:00:22;;;;;;;0.60;0.60;;;14.90;99.90;;;;;;4378313;32;20849;-75
2023/07/07 02:02:48;;;;;;;0.50;0.50;;;14.80;99.90;;;;;;4381277;32;20103;-76
2023/07/07 02:05:13;;;;;;;0.52;0.52;;;14.70;99.90;;;;;;4382638;32;20074;-75
2023/07/07 02:07:40;;;;;;;1.48;0.68;;;14.70;99.90;;;;;;4382977;32;20066;-75
2023/07/07 02:10:06;;;;;;;0.77;0.77;;;14.60;99.90;;;;;;4383931;32;20124;-75
2023/07/07 02:12:31;;;;;;;0.60;0.52;;;14.70;99.90;;;;;;4381125;32;20082;-74
2023/07/07 02:14:57;;;;;;;1.87;0.75;;;14.60;99.90;;;;;;4381471;32;20083;-75
2023/07/07 02:17:24;;;;;;;1.75;0.70;;;14.50;99.90;;;;;;4380182;32;20075;-75
2023/07/07 02:19:50;;;;;;;0.50;0.50;;;14.60;99.90;;;;;;4383851;32;20452;-75
2023/07/07 02:22:15;;;;;;;0.32;0.32;;;14.70;99.90;;;;;;4382380;32;20133;-75
2023/07/07 02:24:41;;;;;;;4.85;1.75;;;14.70;99.90;;;;;;4385457;32;20086;-74
2023/07/07 02:27:10;;;;;;;0.57;0.57;;;14.70;99.90;;;;;;4380785;32;20109;-76
2023/07/07 02:29:36;;;;;;;2.92;0.57;;;14.60;99.90;;;;;;4380848;32;20092;-76
2023/07/07 02:32:02;;;;;;;1.25;0.80;;;14.50;99.90;;;;;;4378043;32;20089;-75
2023/07/07 02:34:27;;;;;;;2.15;0.80;;;14.50;99.90;;;;;;4381063;32;20691;-76
2023/07/07 02:36:53;;;;;;;15.52;3.03;;;14.40;99.90;;;;;;4380818;32;20425;-75
2023/07/07 02:39:18;;;;;;;0.90;0.57;;;14.50;99.90;;;;;;4381880;32;20118;-75
2023/07/07 02:41:44;;;;;;;0.40;0.40;;;14.60;99.90;;;;;;4378411;32;20106;-76
2023/07/07 02:44:09;;;;;;;7.80;1.20;;;14.50;99.90;;;;;;4379665;32;20154;-76
2023/07/07 02:46:34;;;;;;;1.55;0.82;;;14.20;99.90;;;;;;4380360;32;20096;-76
2023/07/07 02:49:00;;;;;;;0.60;0.60;;;14.20;99.90;;;;;;4382015;32;20532;-77
2023/07/07 02:51:25;;;;;;;1.17;1.05;;;14.10;99.90;;;;;;4381086;32;20114;-76
2023/07/07 02:53:51;;;;;;;1.73;0.88;;;14.10;99.90;;;;;;4380017;32;20253;-76
2023/07/07 02:56:16;;;;;;;0.82;0.80;;;14.30;99.90;;;;;;4382260;32;20428;-76
2023/07/07 02:58:42;;;;;;;0.65;0.50;;;14.20;99.90;;;;;;4381312;32;20126;-77
2023/07/07 03:01:11;;;;;;;2.60;1.27;;;14.10;99.90;;;;;;4380660;32;20147;-76
2023/07/07 03:03:42;;;;;;;0.40;0.40;;;14.10;99.90;;;;;;4381178;32;20114;-76
2023/07/07 03:06:12;;;;;;;2.50;1.58;;;14.20;99.90;;;;;;4381146;32;20079;-77
2023/07/07 03:08:37;;;;;;;1.55;0.62;;;14.30;99.90;;;;;;4380521;32;20412;-77
2023/07/07 03:11:06;;;;;;;10.27;1.37;;;14.30;99.90;;;;;;4380226;32;20079;-75
2023/07/07 03:13:31;;;;;;;0.40;0.40;;;14.30;99.90;;;;;;4382663;32;20141;-75
2023/07/07 03:15:57;;;;;;;0.65;0.52;;;14.20;99.90;;;;;;4382975;32;20090;-76
2023/07/07 03:18:22;;;;;;;6.37;0.60;;;14.20;99.90;;;;;;4381725;32;20110;-76
2023/07/07 03:20:48;;;;;;;0.90;0.55;;;14.30;99.90;;;;;;4379676;32;20066;-77
2023/07/07 03:23:14;;;;;;;0.60;0.60;;;14.10;99.90;;;;;;4380108;32;20110;-75
2023/07/07 03:25:40;;;;;;;0.32;0.32;;;14.10;99.90;;;;;;4381315;32;20616;-75
2023/07/07 03:28:05;;;;;;;0.40;0.40;;;14.20;99.90;;;;;;4379935;32;20090;-76
2023/07/07 03:30:31;;;;;;;1.58;0.90;;;14.20;99.90;;;;;;4378999;32;20165;-77
2023/07/07 03:32:56;;;;;;;0.50;0.50;;;14.30;99.90;;;;;;4380931;32;20093;-75
2023/07/07 03:35:22;;;;;;;0.40;0.40;;;14.40;99.90;;;;;;4380706;32;20479;-76
2023/07/07 03:37:47;;;;;;;9.30;0.75;;;14.40;99.90;;;;;;4377648;32;20075;-76
2023/07/07 03:40:13;;;;;;;1.08;0.98;;;14.40;99.90;;;;;;4381842;32;20157;-76
2023/07/07 03:42:39;;;;;;;0.50;0.50;;;14.40;99.90;;;;;;4379137;32;20542;-77
2023/07/07 03:45:05;;;;;;;1.37;0.62;;;14.40;99.90;;;;;;4380685;32;20079;-76
2023/07/07 03:47:30;;;;;;;1.08;0.98;;;14.40;99.90;;;;;;4380088;32;20067;-77
2023/07/07 03:49:56;;;;;;;0.50;0.50;;;14.40;99.90;;;;;;4380457;32;20059;-77
2023/07/07 03:52:21;;;;;;;0.50;0.50;;;14.50;99.90;;;;;;4380734;32;20133;-77
2023/07/07 03:54:47;;;;;;;0.50;0.50;;;14.50;99.90;;;;;;4381792;32;20432;-77
2023/07/07 03:57:12;;;;;;;1.08;0.73;;;14.60;99.90;;;;;;4381512;32;20078;-76
2023/07/07 03:59:38;;;;;;;3.35;0.70;;;14.50;99.90;;;;;;4379329;32;20562;-76
2023/07/07 04:02:04;;;;;;;0.45;0.45;;;14.50;99.90;;;;;;4381529;32;20073;-78
2023/07/07 04:04:29;;;;;;;0.50;0.50;;;14.60;99.90;;;;;;4379684;32;20098;-76
2023/07/07 04:06:56;;;;;;;1.17;1.08;;;14.70;99.90;;;;;;4376141;32;20103;-76
2023/07/07 04:09:22;;;;;;;1.85;0.55;;;14.80;99.90;;;;;;4377516;32;20087;-77
2023/07/07 04:11:48;;;;;;;1.10;1.05;;;14.90;99.90;;;;;;4380208;32;20522;-77
2023/07/07 04:14:13;;;;;;;0.62;0.62;;;15.00;99.90;;;;;;4378631;32;20063;-77
2023/07/07 04:16:39;;;;;;;1.80;0.90;;;15.00;99.90;;;;;;4379139;32;20148;-77
2023/07/07 04:19:04;;;;;;;2.58;0.85;;;15.10;99.90;;;;;;4382181;32;20133;-77
2023/07/07 04:21:30;;;;;;;1.15;0.88;;;15.10;99.90;;;;;;4370938;32;20196;-77
2023/07/07 04:23:57;;;;;;;1.62;1.37;;;15.20;99.90;;;;;;4376402;32;20111;-77
2023/07/07 04:26:25;;;;;;;1.42;0.90;;;15.20;99.90;;;;;;4379200;32;20089;-78
2023/07/07 04:28:52;;;;;;;0.52;0.52;;;15.20;99.90;;;;;;4379819;32;20082;-77
2023/07/07 04:31:20;;;;;;;21.73;1.17;;;15.30;99.90;;;;;;4378107;32;20094;-75
2023/07/07 04:33:46;;;;;;;0.50;0.50;;;15.30;99.90;;;;;;4381140;32;20090;-78
2023/07/07 04:36:13;;;;;;;0.60;0.60;;;15.30;99.90;;;;;;4378404;32;20460;-75
2023/07/07 04:38:38;;;;;;;1.05;0.82;;;15.40;99.90;;;;;;4381139;32;20079;-77
2023/07/07 04:41:08;;;;;;;0.93;0.90;;;15.50;99.90;;;;;;4378038;32;20078;-76
2023/07/07 04:43:34;;;;;;;1.87;1.30;;;15.50;99.90;;;;;;4379407;32;20107;-77
2023/07/07 04:46:01;;;;;;;0.50;0.50;;;15.60;99.90;;;;;;4377559;32;20585;-76
2023/07/07 04:48:27;;;;;;;0.73;0.73;;;15.70;99.90;;;;;;4379088;32;20432;-77
2023/07/07 04:50:58;;;;;;;0.50;0.50;;;15.70;99.90;;;;;;4380488;32;20074;-75
2023/07/07 04:53:25;;;;;;;0.50;0.50;;;15.80;99.90;;;;;;4376626;32;21202;-76
2023/07/07 04:55:51;;;;;;;6.22;2.17;;;15.90;99.90;;;;;;4380786;32;20107;-77
2023/07/07 04:58:16;;;;;;;1.55;0.75;;;15.90;99.90;;;;;;4377893;32;20082;-75
2023/07/07 05:00:41;;;;;;;0.55;0.55;;;16.00;99.90;;;;;;4374878;32;20089;-76
2023/07/07 05:03:07;;;;;;;0.68;0.47;;;16.10;99.90;;;;;;4374377;32;20058;-75
2023/07/07 05:05:35;;;;;;;2.22;1.27;;;16.10;99.90;;;;;;4375278;32;20448;-76
2023/07/07 05:08:01;;;;;;;1.37;0.70;;;16.20;99.90;;;;;;4377772;32;20087;-76
2023/07/07 05:10:26;;;;;;;0.30;0.30;;;16.30;99.90;;;;;;4377192;32;20092;-77
2023/07/07 05:12:52;;;;;;;0.30;0.30;;;16.40;99.90;;;;;;4377537;32;20463;-77
2023/07/07 05:15:17;;;;;;;0.57;0.57;;;16.50;99.90;;;;;;4379453;32;20066;-77
2023/07/07 05:17:42;;;;;;;0.40;0.40;;;16.60;99.90;;;;;;4364369;32;20107;-77
2023/07/07 05:20:08;;;;;;;0.40;0.40;;;16.70;99.90;;;;;;4375787;32;20132;-76
2023/07/07 05:22:34;;;;;;;0.65;0.65;;;16.90;99.90;;;;;;4378320;32;20090;-76
2023/07/07 05:24:59;;;;;;;0.50;0.50;;;17.00;99.90;;;;;;4378191;32;20082;-76
2023/07/07 05:27:25;;;;;;;0.37;0.37;;;17.20;99.90;;;;;;4361157;32;20098;-77
2023/07/07 05:29:51;;;;;;;0.30;0.30;;;17.30;99.90;;;;;;4367904;32;20187;-76
2023/07/07 05:32:17;;;;;;;0.43;0.43;;;17.40;99.90;;;;;;4349762;32;20141;-76
2023/07/07 05:34:43;;;;;;;0.30;0.30;;;17.40;99.90;;;;;;4373538;32;20083;-77
2023/07/07 05:37:08;;;;;;;0.40;0.40;;;17.50;99.90;;;;;;4369189;32;20082;-76
2023/07/07 05:39:35;;;;;;;0.50;0.50;;;17.60;99.90;;;;;;4373726;32;20098;-76
2023/07/07 05:42:02;;;;;;;0.30;0.30;;;17.70;99.90;;;;;;4376292;32;20074;-76
2023/07/07 05:44:29;;;;;;;0.30;0.30;;;17.80;99.90;;;;;;4374583;32;20070;-77
2023/07/07 05:46:54;;;;;;;0.45;0.45;;;17.90;99.90;;;;;;4375628;32;20093;-76
2023/07/07 05:49:20;;;;;;;0.68;0.68;;;18.00;99.90;;;;;;4377572;32;20095;-76
2023/07/07 05:51:46;;;;;;;0.30;0.30;;;18.00;99.90;;;;;;4378438;32;20075;-76
2023/07/07 05:54:11;;;;;;;0.60;0.60;;;18.10;99.90;;;;;;4378407;32;20103;-76
2023/07/07 05:56:37;;;;;;;0.73;0.50;;;18.20;99.90;;;;;;4374208;32;20083;-77
2023/07/07 05:59:03;;;;;;;0.40;0.40;;;18.30;99.90;;;;;;4373347;32;20471;-75
2023/07/07 06:01:29;;;;;;;0.30;0.30;;;18.30;99.90;;;;;;4377269;32;20530;-76
2023/07/07 06:03:54;;;;;;;1.45;0.68;;;18.40;99.90;;;;;;4379678;32;20094;-76
2023/07/07 06:06:20;;;;;;;6.07;0.65;;;18.50;99.90;;;;;;4376393;32;20232;-76
2023/07/07 06:08:45;;;;;;;0.30;0.30;;;18.50;99.90;;;;;;4371464;32;20062;-76
2023/07/07 06:11:11;;;;;;;0.30;0.30;;;18.60;99.90;;;;;;4379552;32;20094;-76
2023/07/07 06:13:37;;;;;;;0.30;0.30;;;18.60;99.90;;;;;;4377147;32;20098;-76
2023/07/07 06:16:03;;;;;;;0.30;0.30;;;18.70;99.90;;;;;;4379703;32;20147;-76
2023/07/07 06:18:28;;;;;;;0.52;0.50;;;18.80;99.90;;;;;;4378404;32;20135;-76
2023/07/07 06:20:59;;;;;;;0.57;0.45;;;18.80;99.90;;;;;;4380035;32;20087;-75
2023/07/07 06:23:25;;;;;;;0.40;0.40;;;19.00;99.90;;;;;;4380459;32;20511;-76
2023/07/07 06:25:52;;;;;;;0.40;0.40;;;19.00;99.90;;;;;;4380243;32;20637;-76
2023/07/07 06:28:18;;;;;;;0.30;0.30;;;19.10;99.90;;;;;;4377230;32;20203;-76
2023/07/07 06:30:47;;;;;;;0.30;0.30;;;19.20;99.90;;;;;;4379024;32;20204;-77
2023/07/07 06:33:13;;;;;;;0.50;0.50;;;19.30;99.90;;;;;;4378501;32;20141;-76
2023/07/07 06:35:39;;;;;;;0.40;0.40;;;19.40;99.90;;;;;;4379010;32;20810;-76
2023/07/07 06:38:05;;;;;;;0.40;0.40;;;19.50;99.90;;;;;;4376583;32;20065;-76
2023/07/07 06:40:30;;;;;;;0.40;0.40;;;19.60;99.90;;;;;;4378273;32;20183;-76
2023/07/07 06:42:58;;;;;;;0.52;0.52;;;19.60;99.90;;;;;;4376017;32;20103;-76
2023/07/07 06:45:23;;;;;;;0.22;0.22;;;19.70;99.90;;;;;;4377915;32;20078;-76
2023/07/07 06:47:49;;;;;;;0.30;0.30;;;19.90;99.90;;;;;;4378452;32;20145;-76
2023/07/07 06:50:26;;;;;;;0.55;0.50;;;19.90;99.90;;;;;;4377499;32;20066;-77
2023/07/07 06:52:51;;;;;;;1.42;0.57;;;20.10;99.90;;;;;;4376924;32;20078;-77
2023/07/07 06:55:17;;;;;;;0.40;0.40;;;20.20;99.90;;;;;;4380773;32;20460;-75
2023/07/07 06:57:42;;;;;;;0.45;0.45;;;20.30;99.90;;;;;;4376069;32;20148;-75
2023/07/07 07:00:08;;;;;;;0.30;0.30;;;20.30;99.90;;;;;;4378351;32;20083;-74
2023/07/07 07:02:33;;;;;;;0.30;0.30;;;20.50;99.90;;;;;;4379166;32;20359;-76
2023/07/07 07:04:59;;;;;;;0.20;0.20;;;20.50;99.90;;;;;;4377205;32;20086;-75
2023/07/07 07:07:24;;;;;;;0.30;0.30;;;20.60;99.90;;;;;;4380409;32;20074;-75
2023/07/07 07:09:50;;;;;;;0.20;0.20;;;20.70;99.90;;;;;;4379242;32;20476;-76
2023/07/07 07:12:15;;;;;;;0.20;0.20;;;20.80;99.90;;;;;;4377841;32;20093;-75
2023/07/07 07:14:41;;;;;;;0.30;0.30;;;20.80;99.90;;;;;;4379295;32;20070;-75
2023/07/07 07:17:08;;;;;;;0.50;0.50;;;20.80;99.90;;;;;;4377511;32;20512;-75
2023/07/07 07:19:33;;;;;;;0.30;0.30;;;20.90;99.90;;;;;;4378146;32;20866;-76
2023/07/07 07:21:59;;;;;;;0.37;0.37;;;20.90;99.90;;;;;;4376149;32;20071;-75
2023/07/07 07:24:24;;;;;;;0.75;0.52;;;21.00;99.90;;;;;;4378108;32;20479;-76
2023/07/07 07:26:50;;;;;;;0.30;0.30;;;21.10;99.90;;;;;;4377715;32;20082;-75
2023/07/07 07:29:15;;;;;;;3.00;0.60;;;21.20;99.90;;;;;;4377024;32;20534;-76
2023/07/07 07:31:42;;;;;;;0.40;0.40;;;21.40;99.90;;;;;;4375379;32;20594;-77
2023/07/07 07:34:26;;;;;;;0.20;0.20;;;21.50;99.40;;;;;;4377182;32;20818;-76
2023/07/07 07:36:52;;;;;;;0.52;0.40;;;21.60;99.30;;;;;;4371631;32;20107;-76
2023/07/07 07:39:19;;;;;;;0.73;0.73;;;21.70;99.10;;;;;;4378444;32;20086;-77
2023/07/07 07:41:48;;;;;;;0.30;0.30;;;21.80;98.20;;;;;;4380738;32;20102;-76
2023/07/07 07:44:14;;;;;;;0.50;0.50;;;21.80;98.20;;;;;;4378278;32;20079;-76
2023/07/07 07:46:41;;;;;;;0.60;0.60;;;22.00;98.30;;;;;;4374864;32;20085;-75
2023/07/07 07:49:07;;;;;;;0.20;0.20;;;22.10;97.70;;;;;;4374436;32;20460;-75
2023/07/07 07:51:32;;;;;;;0.20;0.20;;;22.30;97.70;;;;;;4376934;32;20071;-76
2023/07/07 07:53:58;;;;;;;0.30;0.30;;;22.50;97.50;;;;;;4375635;32;20083;-75
2023/07/07 07:56:23;;;;;;;0.30;0.30;;;22.60;96.30;;;;;;4376379;32;20173;-76
2023/07/07 07:58:49;;;;;;;0.32;0.32;;;22.60;96.80;;;;;;4370660;32;20111;-76
2023/07/07 08:01:15;;;;;;;0.30;0.30;;;22.70;97.20;;;;;;4371226;32;20677;-76
2023/07/07 08:03:41;;;;;;;0.30;0.30;;;22.80;95.60;;;;;;4373487;32;20541;-77
2023/07/07 08:06:06;;;;;;;0.30;0.30;;;22.90;94.90;;;;;;4375458;32;20126;-76
2023/07/07 08:08:32;;;;;;;0.20;0.20;;;22.90;94.90;;;;;;4378018;32;20078;-78
2023/07/07 08:10:57;;;;;;;0.28;0.25;;;23.00;93.90;;;;;;4376905;32;20090;-77
2023/07/07 08:13:23;;;;;;;0.43;0.43;;;23.10;94.30;;;;;;4376029;32;20090;-77
2023/07/07 08:15:48;;;;;;;0.20;0.20;;;23.20;93.70;;;;;;4374183;32;20090;-77
2023/07/07 08:18:13;;;;;;;0.32;0.32;;;23.30;93.30;;;;;;4378090;32;20585;-76
2023/07/07 08:20:39;;;;;;;0.20;0.20;;;23.50;93.30;;;;;;4374816;32;20071;-77
2023/07/07 08:23:05;;;;;;;0.20;0.20;;;23.60;92.60;;;;;;4373847;32;20074;-76
2023/07/07 08:25:34;;;;;;;0.20;0.20;;;23.70;92.80;;;;;;4377965;32;20085;-77
2023/07/07 08:28:00;;;;;;;0.57;0.57;;;23.70;92.70;;;;;;4375727;32;20087;-76
2023/07/07 08:30:25;;;;;;;0.25;0.25;;;23.70;93.60;;;;;;4376857;32;20603;-76
2023/07/07 08:32:51;;;;;;;0.28;0.28;;;23.80;93.60;;;;;;4376689;32;20189;-75
2023/07/07 08:35:17;;;;;;;0.15;0.15;;;23.70;92.20;;;;;;4377060;32;20061;-76
2023/07/07 08:37:42;;;;;;;0.40;0.40;;;23.70;92.10;;;;;;4375275;32;20074;-77
2023/07/07 08:40:15;;;;;;;0.20;0.20;;;23.60;91.40;;;;;;4374676;32;20098;-77
2023/07/07 08:42:41;;;;;;;0.30;0.30;;;23.80;91.80;;;;;;4380799;32;20205;-77
2023/07/07 08:45:14;;;;;;;0.43;0.30;;;23.90;90.40;;;;;;4376781;32;20086;-76
2023/07/07 08:47:53;;;;;;;0.20;0.20;;;24.10;91.40;;;;;;4379606;32;20526;-76
2023/07/07 08:50:40;;;;;;;1.65;0.95;;;24.00;88.70;;;;;;4377950;32;20102;-77
2023/07/07 08:53:31;;;;;;;0.20;0.20;;;23.90;87.90;;;;;;4369960;32;20098;-76
2023/07/07 08:56:08;;;;;;;0.30;0.30;;;23.90;88.00;;;;;;4374462;32;20082;-77
2023/07/07 08:58:48;;;;;;;0.20;0.20;;;24.10;89.60;;;;;;4373430;32;20134;-76
2023/07/07 09:01:48;;;;;;;0.17;0.17;;;24.30;89.30;;;;;;4375450;32;20106;-76
2023/07/07 09:04:31;;;;;;;0.10;0.10;;;24.40;86.70;;;;;;4375347;32;20797;-75
2023/07/07 09:07:26;;;;;;;1.48;0.30;;;24.40;87.30;;;;;;4374978;32;20089;-75
2023/07/07 09:10:12;;;;;;;0.20;0.20;;;24.50;88.00;;;;;;4374207;32;20145;-76
2023/07/07 09:12:46;;;;;;;0.20;0.20;;;24.60;84.00;;;;;;4373481;32;20099;-77
2023/07/07 09:15:20;;;;;;;0.13;0.13;;;24.70;89.20;;;;;;4375617;32;20109;-76
2023/07/07 09:17:50;;;;;;;0.30;0.30;;;24.70;85.00;;;;;;4375422;32;20086;-77
2023/07/07 09:20:19;;;;;;;0.52;0.52;;;24.70;83.40;;;;;;4374592;32;20087;-75
2023/07/07 09:22:51;;;;;;;0.30;0.30;;;24.80;86.60;;;;;;4378020;32;20094;-76
2023/07/07 09:25:24;;;;;;;0.10;0.10;;;25.00;87.50;;;;;;4374580;32;20172;-76
2023/07/07 09:27:59;;;;;;;0.28;0.28;;;24.90;83.80;;;;;;4376413;32;20083;-76
2023/07/07 09:30:32;;;;;;;0.25;0.25;;;25.00;85.90;;;;;;4374356;32;20109;-75
2023/07/07 09:32:57;;;;;;;0.75;0.70;;;25.10;85.30;;;;;;4376263;32;20104;-75
2023/07/07 09:35:27;;;;;;;3.95;0.40;;;25.20;81.90;;;;;;4376593;32;20104;-76
2023/07/07 09:38:10;;;;;;;4.50;0.32;;;25.20;79.80;;;;;;4377904;32;20106;-75
2023/07/07 09:40:46;;;;;;;4.15;1.65;;;25.30;81.90;;;;;;4378099;32;20146;-76
2023/07/07 09:43:39;;;;;;;0.25;0.25;;;25.30;81.30;;;;;;4378414;32;20505;-77
2023/07/07 09:46:16;;;;;;;0.22;0.22;;;25.40;82.40;;;;;;4376153;32;20101;-77
2023/07/07 09:49:10;;;;;;;0.15;0.13;;;25.40;82.00;;;;;;4377131;32;20554;-78
2023/07/07 09:51:46;;;;;;;1.35;0.65;;;25.50;84.30;;;;;;4377268;32;20074;-75
2023/07/07 09:54:14;;;;;;;0.13;0.13;;;25.60;82.50;;;;;;4375523;32;20105;-76
2023/07/07 09:56:50;;;;;;;0.20;0.20;;;25.60;83.10;;;;;;4378293;32;20106;-78
2023/07/07 09:59:22;;;;;;;0.25;0.25;;;25.70;82.90;;;;;;4379222;32;20115;-77
2023/07/07 10:01:52;;;;;;;0.45;0.45;;;25.70;82.00;;;;;;4381905;32;20079;-77
2023/07/07 10:04:19;;;;;;;0.52;0.30;;;25.70;82.70;;;;;;4377530;32;20410;-78
2023/07/07 10:06:56;;;;;;;0.75;0.57;;;25.90;81.60;;;;;;4377632;32;21324;-78
2023/07/07 10:09:22;;;;;;;1.25;0.30;;;26.10;82.70;;;;;;4379317;32;20672;-77
2023/07/07 10:11:49;;;;;;;0.10;0.10;;;26.20;79.10;;;;;;4376932;32;20098;-77
2023/07/07 10:14:16;;;;;;;0.10;0.10;;;26.20;82.20;;;;;;4378479;32;20569;-76
2023/07/07 10:16:54;;;;;;;0.10;0.10;;;26.40;81.20;;;;;;4376888;32;20133;-77
2023/07/07 10:19:19;;;;;;;0.10;0.10;;;26.30;79.10;;;;;;4379285;32;20515;-77
2023/07/07 10:21:46;;;;;;;19.27;1.12;;;26.30;78.90;;;;;;4379504;32;20079;-78
2023/07/07 10:24:13;;;;;;;0.10;0.10;;;26.40;78.30;;;;;;4375145;32;20107;-77
2023/07/07 10:26:44;;;;;;;0.20;0.20;;;26.40;78.40;;;;;;4378364;32;20109;-77
2023/07/07 10:29:13;;;;;;;0.22;0.22;;;26.50;78.90;;;;;;4377893;32;20086;-77
2023/07/07 10:31:42;;;;;;;0.88;0.70;;;26.80;78.30;;;;;;4378939;32;20094;-78
2023/07/07 10:34:27;;;;;;;0.20;0.20;;;26.80;77.30;;;;;;4376281;32;20532;-77
2023/07/07 10:36:54;;;;;;;0.00;0.00;;;26.90;78.60;;;;;;4380883;32;20106;-76
2023/07/07 10:39:23;;;;;;;0.20;0.20;;;27.20;77.80;;;;;;4374225;32;20111;-77
2023/07/07 10:41:48;;;;;;;0.10;0.10;;;27.50;76.30;;;;;;4379363;32;20102;-76
2023/07/07 10:44:14;;;;;;;0.20;0.20;;;27.50;76.50;;;;;;4376390;32;20696;-77
2023/07/07 10:46:39;;;;;;;0.28;0.28;;;27.40;78.20;;;;;;4380114;32;20154;-77
2023/07/07 10:49:14;;;;;;;0.13;0.13;;;27.80;79.90;;;;;;4377169;32;20523;-77
2023/07/07 10:51:55;;;;;;;0.10;0.10;;;28.40;76.70;;;;;;4379487;32;20694;-76
2023/07/07 10:54:32;;;;;;;0.20;0.20;;;28.50;74.10;;;;;;4379578;32;20094;-76
2023/07/07 10:57:28;;;;;;;0.20;0.20;;;28.60;76.50;;;;;;4377232;32;20082;-75
2023/07/07 11:00:26;;;;;;;0.10;0.10;;;29.00;73.50;;;;;;4379808;32;20099;-75
2023/07/07 11:03:20;;;;;;;0.10;0.10;;;29.20;75.10;;;;;;4376898;32;20161;-75
2023/07/07 11:06:12;;;;;;;0.90;0.10;;;29.10;71.40;;;;;;4376903;32;20109;-77
2023/07/07 11:08:52;;;;;;;0.10;0.10;;;29.10;73.70;;;;;;4376802;32;20234;-76
2023/07/07 11:12:00;;;;;;;0.10;0.10;;;29.30;71.10;;;;;;4379287;32;20115;-79
2023/07/07 11:14:36;;;;;;;0.20;0.20;;;29.50;72.60;;;;;;4375444;32;20094;-77
2023/07/07 11:17:33;;;;;;;0.03;0.03;;;29.80;71.10;;;;;;4380785;32;20159;-76
2023/07/07 11:20:26;;;;;;;0.20;0.20;;;29.60;68.30;;;;;;4377739;32;20110;-76
2023/07/07 11:23:20;;;;;;;0.10;0.10;;;29.30;69.60;;;;;;4375413;32;20140;-77
2023/07/07 11:26:14;;;;;;;0.32;0.30;;;29.50;68.20;;;;;;4377455;32;20494;-76
2023/07/07 11:28:45;;;;;;;1.65;0.62;;;29.70;69.40;;;;;;4375482;32;20102;-76
2023/07/07 11:31:23;;;;;;;0.20;0.20;;;30.20;67.10;;;;;;4377239;32;20546;-76
2023/07/07 11:34:19;;;;;;;0.10;0.10;;;30.20;65.90;;;;;;4377688;32;20078;-76
2023/07/07 11:37:14;;;;;;;0.15;0.15;;;30.50;66.70;;;;;;4374422;32;20537;-77
2023/07/07 11:40:04;;;;;;;0.10;0.10;;;30.50;65.40;;;;;;4375055;32;20478;-78
2023/07/07 11:42:50;;;;;;;0.10;0.10;;;30.70;66.30;;;;;;4375866;32;20078;-77
2023/07/07 11:45:31;;;;;;;1.65;0.45;;;30.90;63.90;;;;;;4375954;32;20087;-77
2023/07/07 11:48:00;;;;;;;0.10;0.10;;;31.30;65.10;;;;;;4369254;32;155146;-75
2023/07/07 11:50:44;;;;;;;0.00;0.00;;;31.30;61.60;;;;;;4374392;32;20109;-77
2023/07/07 11:53:42;;;;;;;0.10;0.10;;;31.40;62.10;;;;;;4374906;32;20669;-76
2023/07/07 11:56:47;;;;;;;0.20;0.20;;;31.60;61.80;;;;;;4376446;32;20162;-77
2023/07/07 11:59:35;;;;;;;1.02;0.65;;;31.90;61.20;;;;;;4366016;32;20086;-77
2023/07/07 12:02:03;;;;;;;0.10;0.10;;;32.30;62.70;;;;;;4376793;32;20109;-78
2023/07/07 12:04:38;;;;;;;0.20;0.20;;;32.50;60.90;;;;;;4377970;32;20065;-79
2023/07/07 12:07:09;;;;;;;0.55;0.37;;;32.80;59.30;;;;;;4374462;32;20078;-79
2023/07/07 12:09:41;;;;;;;0.30;0.30;;;32.60;59.50;;;;;;4378189;32;20728;-78
2023/07/07 12:12:17;;;;;;;0.13;0.13;;;32.90;59.60;;;;;;4374579;32;20114;-79
2023/07/07 12:14:54;;;;;;;0.13;0.13;;;32.80;58.90;;;;;;4376403;32;20606;-78
2023/07/07 12:17:25;;;;;;;0.10;0.10;;;32.90;58.90;;;;;;4374895;32;20099;-79
2023/07/07 12:19:55;;;;;;;2.30;0.47;;;33.20;57.50;;;;;;4373951;32;20085;-78
2023/07/07 12:22:24;;;;;;;;;;;33.50;58.10;;;;;;4375499;32;20526;-77
2023/07/07 12:24:58;;;;;;;0.20;0.20;;;33.30;57.50;;;;;;4370868;32;19962;-76
2023/07/07 12:27:32;;;;;;;0.20;0.20;;;33.40;56.90;;;;;;4374933;32;20065;-75
2023/07/07 12:29:59;;;;;;;0.15;0.15;;;33.10;59.10;;;;;;4375594;32;20134;-77
2023/07/07 12:32:24;;;;;;;0.20;0.20;;;32.90;57.70;;;;;;4376554;32;20098;-76
2023/07/07 12:35:13;;;;;;;0.20;0.20;;;33.20;58.20;;;;;;4378880;32;20086;-77
2023/07/07 12:37:39;;;;;;;0.17;0.17;;;33.40;56.30;;;;;;4376691;32;20160;-76
2023/07/07 12:40:16;;;;;;;0.20;0.20;;;33.40;55.80;;;;;;4377817;32;20124;-76
2023/07/07 12:42:43;;;;;;;0.20;0.20;;;33.90;56.70;;;;;;4378516;32;20089;-76
2023/07/07 12:45:30;;;;;;;0.20;0.20;;;34.30;56.80;;;;;;4378707;32;20173;-76
2023/07/07 12:48:06;;;;;;;0.10;0.10;;;33.70;54.90;;;;;;4379010;32;20107;-76
2023/07/07 12:50:38;;;;;;;0.13;0.13;;;33.80;54.90;;;;;;4377686;32;20086;-72
2023/07/07 12:53:10;;;;;;;2.40;0.28;;;34.20;54.30;;;;;;4377943;32;20087;-73
2023/07/07 12:55:38;;;;;;;0.20;0.20;;;34.80;53.90;;;;;;4379327;32;20114;-73
2023/07/07 12:58:10;;;;;;;0.30;0.30;;;35.40;53.20;;;;;;4380676;32;20066;-75
2023/07/07 13:00:38;;;;;;;0.10;0.10;;;35.30;53.00;;;;;;4379563;32;20098;-74
2023/07/07 13:03:17;;;;;;;0.20;0.20;;;35.50;52.80;;;;;;4379198;32;20066;-73
2023/07/07 13:05:46;;;;;;;0.10;0.10;;;35.50;52.60;;;;;;4378469;32;20107;-73